createdAt,value
2019-05-09T00:02:15.663Z,96433.23
2019-05-09T00:04:44.135Z,96435.53
2019-05-09T00:07:14.008Z,96434.92
2019-05-09T00:09:44.097Z,96428.21
2019-05-09T00:12:14.263Z,96416.31
2019-05-09T00:14:43.374Z,96423.91
2019-05-09T00:17:13.825Z,96415.50
2019-05-09T00:19:43.723Z,96413.36
2019-05-09T00:22:13.705Z,96405.17
2019-05-09T00:24:41.803Z,96404.09
2019-05-09T00:27:10.048Z,96389.27
2019-05-09T00:29:44.639Z,96376.92
2019-05-09T00:32:28.844Z,96389.05
2019-05-09T00:35:03.887Z,96387.73
2019-05-09T00:37:53.563Z,96381.25
2019-05-09T00:40:23.856Z,96393.66
2019-05-09T00:42:53.299Z,96395.41
2019-05-09T00:45:56.233Z,96389.38
2019-05-09T00:48:29.394Z,96391.80
2019-05-09T00:50:57.409Z,96384.33
2019-05-09T00:53:25.352Z,96385.44
2019-05-09T00:55:53.299Z,96401.22
2019-05-09T00:58:24.157Z,96404.95
2019-05-09T01:00:53.329Z,96398.95
2019-05-09T01:03:23.451Z,96399.88
2019-05-09T01:05:51.266Z,96409.18
2019-05-09T01:08:19.393Z,96401.85
2019-05-09T01:10:47.376Z,96387.30
2019-05-09T01:13:17.052Z,96388.64
2019-05-09T01:15:45.179Z,96402.38
2019-05-09T01:18:13.567Z,96394.44
2019-05-09T01:20:41.501Z,96393.23
2019-05-09T01:23:14.467Z,96390.72
2019-05-09T01:25:43.636Z,96387.84
2019-05-09T01:28:13.865Z,96387.34
2019-05-09T01:30:43.772Z,96392.31
2019-05-09T01:33:49.144Z,96384.12
2019-05-09T01:36:17.219Z,96387.36
2019-05-09T01:38:45.294Z,96390.94
2019-05-09T01:41:26.823Z,96384.21
2019-05-09T01:43:44.297Z,96376.50
2019-05-09T01:46:14.447Z,96373.87
2019-05-09T01:48:43.187Z,96373.98
2019-05-09T01:51:13.700Z,96375.80
2019-05-09T01:53:47.807Z,96380.83
2019-05-09T01:56:15.605Z,96383.00
2019-05-09T01:58:43.667Z,96384.56
2019-05-09T02:01:13.461Z,96382.89
2019-05-09T02:03:43.710Z,96382.30
2019-05-09T02:06:13.692Z,96392.76
2019-05-09T02:08:43.816Z,96391.69
2019-05-09T02:11:13.230Z,96394.44
2019-05-09T02:13:41.567Z,96371.33
2019-05-09T02:16:24.140Z,96392.98
2019-05-09T02:19:03.937Z,96384.20
2019-05-09T02:21:31.695Z,96378.91
2019-05-09T02:23:59.621Z,96380.95
2019-05-09T02:26:27.522Z,96382.16
2019-05-09T02:28:56.603Z,96383.61
2019-05-09T02:31:24.852Z,96378.05
2019-05-09T02:33:54.140Z,96370.34
2019-05-09T02:36:22.440Z,96372.61
2019-05-09T02:38:50.414Z,96372.01
2019-05-09T02:41:19.693Z,96365.03
2019-05-09T02:43:49.562Z,96369.24
2019-05-09T02:46:33.382Z,96368.77
2019-05-09T02:49:01.530Z,96383.56
2019-05-09T02:51:29.579Z,96379.36
2019-05-09T02:53:58.514Z,96361.59
2019-05-09T02:56:29.516Z,96394.30
2019-05-09T02:59:18.964Z,96381.98
2019-05-09T03:02:12.969Z,96389.45
2019-05-09T03:04:41.063Z,96387.50
2019-05-09T03:07:09.889Z,96367.16
2019-05-09T03:09:38.910Z,96368.00
2019-05-09T03:12:22.963Z,96368.48
2019-05-09T03:14:38.482Z,96356.36
2019-05-09T03:17:08.764Z,96371.36
2019-05-09T03:19:38.631Z,96372.36
2019-05-09T03:22:11.955Z,96376.66
2019-05-09T03:24:39.909Z,96381.72
2019-05-09T03:27:14.029Z,96370.52
2019-05-09T03:29:49.175Z,96375.97
2019-05-09T03:32:19.569Z,96372.70
2019-05-09T03:34:47.786Z,96373.87
2019-05-09T03:37:17.645Z,96371.85
2019-05-09T03:39:47.823Z,96370.89
2019-05-09T03:42:20.707Z,96370.25
2019-05-09T03:44:47.667Z,96372.94
2019-05-09T03:47:21.782Z,96375.10
2019-05-09T03:50:08.442Z,96373.17
2019-05-09T03:52:37.287Z,96371.13
2019-05-09T03:55:07.330Z,96378.72
2019-05-09T03:57:38.471Z,96372.48
2019-05-09T04:00:07.703Z,96379.70
2019-05-09T04:02:35.792Z,96379.67
2019-05-09T04:07:44.079Z,96384.73
2019-05-09T04:10:12.131Z,96388.95
2019-05-09T04:12:52.778Z,96395.58
2019-05-09T04:15:10.330Z,96391.00
2019-05-09T04:17:42.691Z,96387.98
2019-05-09T04:20:11.908Z,96388.13
2019-05-09T04:22:39.846Z,96401.38
2019-05-09T04:25:08.766Z,96394.15
2019-05-09T04:27:37.515Z,96405.46
2019-05-09T04:30:08.694Z,96410.30
2019-05-09T04:32:35.155Z,96420.28
2019-05-09T04:35:03.471Z,96420.30
2019-05-09T04:37:31.522Z,96419.22
2019-05-09T04:40:03.275Z,96386.50
2019-05-09T04:42:29.473Z,96409.95
2019-05-09T04:45:03.492Z,96410.56
2019-05-09T04:47:33.791Z,96414.17
2019-05-09T04:50:01.535Z,96412.27
2019-05-09T04:52:29.678Z,96414.80
2019-05-09T04:54:57.712Z,96413.83
2019-05-09T04:57:27.755Z,96419.13
2019-05-09T04:59:57.407Z,96417.20
2019-05-09T05:02:34.716Z,96422.50
2019-05-09T05:05:02.790Z,96425.02
2019-05-09T05:07:30.911Z,96427.18
2019-05-09T05:09:58.922Z,96424.28
2019-05-09T05:12:27.758Z,96429.73
2019-05-09T05:14:57.942Z,96427.67
2019-05-09T05:17:30.231Z,96425.14
2019-05-09T05:19:57.858Z,96427.78
2019-05-09T05:22:40.915Z,96427.78
2019-05-09T05:25:09.470Z,96435.25
2019-05-09T05:27:38.276Z,96435.36
2019-05-09T05:30:07.570Z,96434.30
2019-05-09T05:32:44.629Z,96436.22
2019-05-09T05:35:22.802Z,96430.45
2019-05-09T05:37:51.904Z,96438.48
2019-05-09T05:40:20.038Z,96436.34
2019-05-09T05:42:48.109Z,96435.98
2019-05-09T05:45:18.106Z,96435.27
2019-05-09T05:47:58.911Z,96434.89
2019-05-09T05:50:28.083Z,96441.14
2019-05-09T05:52:57.766Z,96440.86
2019-05-09T05:55:27.429Z,96439.32
2019-05-09T05:57:57.717Z,96442.56
2019-05-09T06:00:28.353Z,96447.63
2019-05-09T06:02:58.581Z,96461.09
2019-05-09T06:05:27.832Z,96457.98
2019-05-09T06:07:57.768Z,96463.65
2019-05-09T06:10:28.787Z,96456.55
2019-05-09T06:12:57.537Z,96460.23
2019-05-09T06:15:25.628Z,96461.95
2019-05-09T06:17:53.432Z,96451.39
2019-05-09T06:20:21.985Z,96460.16
2019-05-09T06:22:50.206Z,96462.80
2019-05-09T06:25:20.560Z,96463.53
2019-05-09T06:27:48.325Z,96470.14
2019-05-09T06:30:28.275Z,96478.18
2019-05-09T06:32:58.053Z,96467.98
2019-05-09T06:35:28.199Z,96464.05
2019-05-09T06:37:58.443Z,96470.34
2019-05-09T06:40:28.470Z,96468.77
2019-05-09T06:42:58.938Z,96463.34
2019-05-09T06:45:42.770Z,96469.77
2019-05-09T06:48:11.383Z,96462.94
2019-05-09T06:50:39.456Z,96467.66
2019-05-09T06:53:08.139Z,96473.26
2019-05-09T06:55:38.395Z,96479.63
2019-05-09T06:58:23.998Z,96481.28
2019-05-09T07:00:59.359Z,96477.30
2019-05-09T07:03:28.396Z,96479.14
2019-05-09T07:06:11.012Z,96482.16
2019-05-09T07:08:44.529Z,96484.35
2019-05-09T07:11:12.585Z,96471.46
2019-05-09T07:13:41.146Z,96478.08
2019-05-09T07:16:09.093Z,96477.60
2019-05-09T07:18:38.256Z,96489.31
2019-05-09T07:21:08.248Z,96486.05
2019-05-09T07:23:37.328Z,96481.94
2019-05-09T07:26:13.548Z,96468.58
2019-05-09T07:28:41.804Z,96489.63
2019-05-09T07:31:24.658Z,96491.80
2019-05-09T07:34:27.734Z,96498.55
2019-05-09T07:36:58.088Z,96504.94
2019-05-09T07:39:27.647Z,96510.96
2019-05-09T07:41:55.513Z,96486.42
2019-05-09T07:44:23.421Z,96506.00
2019-05-09T07:46:59.121Z,96501.17
2019-05-09T07:49:28.349Z,96504.67
2019-05-09T07:51:59.103Z,96503.98
2019-05-09T07:54:29.225Z,96506.40
2019-05-09T07:56:57.986Z,96509.02
2019-05-09T07:59:27.419Z,96480.44
2019-05-09T08:01:58.093Z,96501.95
2019-05-09T08:04:28.343Z,96506.89
2019-05-09T08:06:57.716Z,96506.66
2019-05-09T08:09:28.085Z,96509.79
2019-05-09T08:11:58.543Z,96505.68
2019-05-09T08:14:28.125Z,96510.34
2019-05-09T08:16:58.044Z,96513.84
2019-05-09T08:19:27.501Z,96515.45
2019-05-09T08:21:57.533Z,96525.06
2019-05-09T08:24:27.805Z,96530.09
2019-05-09T08:26:58.105Z,96531.70
2019-05-09T08:29:28.199Z,96529.89
2019-05-09T08:31:58.262Z,96528.92
2019-05-09T08:34:28.286Z,96530.41
2019-05-09T08:36:58.036Z,96529.80
2019-05-09T08:39:27.649Z,96530.33
2019-05-09T08:41:58.967Z,96525.56
2019-05-09T08:44:30.402Z,96519.00
2019-05-09T08:46:57.424Z,96514.14
2019-05-09T08:49:31.441Z,96507.86
2019-05-09T08:52:15.745Z,96503.37
2019-05-09T08:54:40.978Z,96505.17
2019-05-09T08:57:09.042Z,96506.70
2019-05-09T08:59:38.312Z,96510.80
2019-05-09T09:02:16.594Z,96515.57
2019-05-09T09:04:38.377Z,96518.53
2019-05-09T09:07:08.409Z,96522.16
2019-05-09T09:09:37.860Z,96514.95
2019-05-09T09:12:25.284Z,96522.27
2019-05-09T09:14:38.468Z,96518.70
2019-05-09T09:17:07.886Z,96522.50
2019-05-09T09:19:38.390Z,96525.50
2019-05-09T09:22:08.613Z,96529.52
2019-05-09T09:24:37.552Z,96527.20
2019-05-09T09:27:07.707Z,96535.34
2019-05-09T09:29:38.062Z,96530.42
2019-05-09T09:32:08.034Z,96536.88
2019-05-09T09:34:37.800Z,96528.25
2019-05-09T09:37:10.319Z,96529.12
2019-05-09T09:39:43.296Z,96528.64
2019-05-09T09:42:08.761Z,96529.90
2019-05-09T09:44:35.575Z,96533.68
2019-05-09T09:47:03.804Z,96533.13
2019-05-09T09:49:31.886Z,96535.97
2019-05-09T09:52:00.211Z,96529.70
2019-05-09T09:54:28.257Z,96527.19
2019-05-09T09:56:58.522Z,96531.97
2019-05-09T09:59:37.782Z,96535.88
2019-05-09T10:02:09.973Z,96538.69
2019-05-09T10:04:37.543Z,96539.27
2019-05-09T10:07:05.315Z,96539.55
2019-05-09T10:09:33.292Z,96537.92
2019-05-09T10:12:01.293Z,96538.82
2019-05-09T10:14:33.035Z,96540.64
2019-05-09T10:17:21.936Z,96540.58
2019-05-09T10:20:14.888Z,96520.95
2019-05-09T10:22:46.457Z,96544.56
2019-05-09T10:25:13.093Z,96552.09
2019-05-09T10:27:41.499Z,96545.22
2019-05-09T10:30:10.013Z,96549.05
2019-05-09T10:32:38.444Z,96544.27
2019-05-09T10:35:08.786Z,96518.34
2019-05-09T10:37:39.258Z,96547.17
2019-05-09T10:40:06.538Z,96537.05
2019-05-09T10:42:43.417Z,96541.45
2019-05-09T10:45:40.790Z,96544.13
2019-05-09T10:48:09.026Z,96539.17
2019-05-09T10:50:43.919Z,96540.35
2019-05-09T10:53:08.042Z,96542.33
2019-05-09T10:55:38.476Z,96549.17
2019-05-09T10:58:08.144Z,96549.42
2019-05-09T11:00:39.293Z,96547.87
2019-05-09T11:03:08.706Z,96543.97
2019-05-09T11:05:36.786Z,96541.39
2019-05-09T11:08:04.780Z,96538.36
2019-05-09T11:10:33.110Z,96536.99
2019-05-09T11:13:01.113Z,96539.25
2019-05-09T11:15:29.197Z,96536.10
2019-05-09T11:17:57.787Z,96524.89
2019-05-09T11:20:28.426Z,96524.34
2019-05-09T11:22:58.203Z,96526.80
2019-05-09T11:25:27.756Z,96524.34
2019-05-09T11:28:10.075Z,96520.91
2019-05-09T11:30:27.959Z,96522.16
2019-05-09T11:32:55.616Z,96529.58
2019-05-09T11:35:23.793Z,96525.00
2019-05-09T11:37:51.872Z,96528.69
2019-05-09T11:40:19.886Z,96533.05
2019-05-09T11:42:48.340Z,96523.77
2019-05-09T11:45:17.944Z,96527.63
2019-05-09T11:47:46.744Z,96520.70
2019-05-09T11:50:14.864Z,96522.52
2019-05-09T11:52:42.838Z,96522.52
2019-05-09T11:55:28.672Z,96518.87
2019-05-09T11:57:40.747Z,96512.88
2019-05-09T12:00:09.371Z,96517.42
2019-05-09T12:02:38.473Z,96517.63
2019-05-09T12:05:08.798Z,96512.88
2019-05-09T12:07:37.928Z,96503.08
2019-05-09T12:10:07.864Z,96508.35
2019-05-09T12:12:38.844Z,96504.50
2019-05-09T12:15:08.820Z,96506.18
2019-05-09T12:17:51.002Z,96504.71
2019-05-09T12:20:12.561Z,96507.86
2019-05-09T12:22:37.623Z,96515.98
2019-05-09T12:25:08.388Z,96529.52
2019-05-09T12:27:35.523Z,96526.23
2019-05-09T12:30:03.585Z,96521.67
2019-05-09T12:32:31.798Z,96524.55
2019-05-09T12:34:59.718Z,96524.77
2019-05-09T12:37:28.223Z,96519.98
2019-05-09T12:39:58.392Z,96528.11
2019-05-09T12:42:28.926Z,96537.00
2019-05-09T12:44:55.906Z,96532.73
2019-05-09T12:47:23.545Z,96531.40
2019-05-09T12:49:51.577Z,96527.63
2019-05-09T12:52:19.631Z,96523.16
2019-05-09T12:54:48.285Z,96525.37
2019-05-09T12:57:19.210Z,96520.68
2019-05-09T12:59:52.308Z,96508.08
2019-05-09T13:02:17.783Z,96515.45
2019-05-09T13:04:47.622Z,96517.53
2019-05-09T13:07:15.435Z,96514.74
2019-05-09T13:09:43.648Z,96513.05
2019-05-09T13:12:11.693Z,96514.25
2019-05-09T13:14:39.773Z,96523.48
2019-05-09T13:17:30.157Z,96514.81
2019-05-09T13:19:58.648Z,96517.16
2019-05-09T13:22:28.408Z,96512.49
2019-05-09T13:24:58.660Z,96518.87
2019-05-09T13:27:28.457Z,96518.60
2019-05-09T13:29:57.081Z,96515.66
2019-05-09T13:32:24.911Z,96519.09
2019-05-09T13:34:52.830Z,96521.90
2019-05-09T13:37:20.667Z,96523.57
2019-05-09T13:39:48.675Z,96528.20
2019-05-09T13:42:19.613Z,96528.48
2019-05-09T13:44:47.545Z,96533.02
2019-05-09T13:47:17.844Z,96535.77
2019-05-09T13:49:45.427Z,96542.83
2019-05-09T13:52:13.374Z,96538.63
2019-05-09T13:54:41.304Z,96535.41
2019-05-09T13:57:09.371Z,96538.36
2019-05-09T13:59:37.582Z,96540.59
2019-05-09T14:02:05.873Z,96538.99
2019-05-09T14:04:33.886Z,96534.42
2019-05-09T14:07:02.011Z,96532.80
2019-05-09T14:09:29.940Z,96532.31
2019-05-09T14:11:58.910Z,96533.59
2019-05-09T14:14:28.144Z,96515.44
2019-05-09T14:16:58.996Z,96529.52
2019-05-09T14:19:39.864Z,96523.85
2019-05-09T14:21:58.591Z,96527.27
2019-05-09T14:24:27.929Z,96520.26
2019-05-09T14:26:58.264Z,96515.64
2019-05-09T14:29:31.641Z,96513.13
2019-05-09T14:31:57.319Z,96517.97
2019-05-09T14:34:25.431Z,96513.89
2019-05-09T14:36:53.490Z,96521.31
2019-05-09T14:39:23.021Z,96520.17
2019-05-09T14:41:51.396Z,96515.77
2019-05-09T14:44:19.567Z,96514.35
2019-05-09T14:46:48.163Z,96497.42
2019-05-09T14:49:17.571Z,96506.05
2019-05-09T14:51:46.780Z,96509.73
2019-05-09T14:54:14.736Z,96516.00
2019-05-09T14:56:42.900Z,96515.42
2019-05-09T14:59:10.905Z,96514.53
2019-05-09T15:01:43.265Z,96509.64
2019-05-09T15:04:09.152Z,96511.83
2019-05-09T15:06:37.106Z,96518.13
2019-05-09T15:09:08.234Z,96507.42
2019-05-09T15:11:39.463Z,96515.50
2019-05-09T15:14:08.329Z,96504.77
2019-05-09T15:16:38.866Z,96512.62
2019-05-09T15:19:08.367Z,96509.20
2019-05-09T15:21:38.177Z,96509.91
2019-05-09T15:24:08.893Z,96500.14
2019-05-09T15:26:37.372Z,96502.31
2019-05-09T15:29:07.943Z,96499.42
2019-05-09T15:31:35.940Z,96499.66
2019-05-09T15:34:05.060Z,96498.73
2019-05-09T15:36:32.955Z,96488.11
2019-05-09T15:39:00.956Z,96495.75
2019-05-09T15:41:29.057Z,96500.23
2019-05-09T15:43:57.942Z,96491.18
2019-05-09T15:46:31.846Z,96495.17
2019-05-09T15:48:59.912Z,96494.33
2019-05-09T15:51:28.061Z,96491.30
2019-05-09T15:53:57.739Z,96486.59
2019-05-09T15:56:28.820Z,96487.89
2019-05-09T15:58:58.005Z,96483.50
2019-05-09T16:01:28.050Z,96481.27
2019-05-09T16:03:56.302Z,96487.97
2019-05-09T16:06:24.553Z,96494.01
2019-05-09T16:08:52.478Z,96489.53
2019-05-09T16:11:20.692Z,96486.24
2019-05-09T16:13:48.730Z,96485.14
2019-05-09T16:16:17.557Z,96494.33
2019-05-09T16:18:48.340Z,96487.39
2019-05-09T16:21:15.905Z,96492.22
2019-05-09T16:23:43.882Z,96481.92
2019-05-09T16:26:11.994Z,96493.61
2019-05-09T16:28:39.891Z,96494.33
2019-05-09T16:31:07.952Z,96490.61
2019-05-09T16:33:35.804Z,96485.15
2019-05-09T16:36:03.696Z,96486.43
2019-05-09T16:38:42.075Z,96488.55
2019-05-09T16:41:01.578Z,96486.09
2019-05-09T16:43:29.813Z,96487.20
2019-05-09T16:45:58.250Z,96485.45
2019-05-09T16:48:27.653Z,96494.14
2019-05-09T16:51:01.356Z,96502.20
2019-05-09T16:53:27.769Z,96496.86
2019-05-09T16:55:57.701Z,96504.53
2019-05-09T16:58:27.451Z,96517.12
2019-05-09T17:00:55.580Z,96516.56
2019-05-09T17:03:23.800Z,96523.36
2019-05-09T17:05:51.819Z,96528.95
2019-05-09T17:08:19.937Z,96528.12
2019-05-09T17:10:48.797Z,96505.30
2019-05-09T17:13:18.384Z,96534.88
2019-05-09T17:15:46.696Z,96535.97
2019-05-09T17:18:15.136Z,96548.05
2019-05-09T17:21:15.199Z,96543.51
2019-05-09T17:23:32.605Z,96535.79
2019-05-09T17:26:00.725Z,96541.59
2019-05-09T17:28:29.848Z,96552.86
2019-05-09T17:30:58.117Z,96557.08
2019-05-09T17:33:28.785Z,96550.61
2019-05-09T17:35:57.777Z,96558.13
2019-05-09T17:38:28.997Z,96559.62
2019-05-09T17:40:57.865Z,96554.68
2019-05-09T17:43:27.827Z,96562.16
2019-05-09T17:45:58.205Z,96564.73
2019-05-09T17:48:28.488Z,96554.39
2019-05-09T17:50:57.901Z,96562.23
2019-05-09T17:53:28.620Z,96563.80
2019-05-09T17:55:58.368Z,96560.22
2019-05-09T17:58:32.837Z,96559.53
2019-05-09T18:00:57.709Z,96553.97
2019-05-09T18:03:25.593Z,96554.84
2019-05-09T18:05:53.621Z,96546.55
2019-05-09T18:08:21.686Z,96546.94
2019-05-09T18:10:49.685Z,96546.36
2019-05-09T18:13:23.655Z,96554.94
2019-05-09T18:15:48.357Z,96554.62
2019-05-09T18:18:18.509Z,96551.39
2019-05-09T18:20:46.290Z,96550.91
2019-05-09T18:23:14.209Z,96548.02
2019-05-09T18:25:42.251Z,96558.16
2019-05-09T18:28:10.334Z,96568.16
2019-05-09T18:30:38.932Z,96571.63
2019-05-09T18:33:20.303Z,96578.25
2019-05-09T18:35:48.341Z,96576.53
2019-05-09T18:38:23.839Z,96585.80
2019-05-09T18:40:51.988Z,96600.05
2019-05-09T18:43:20.101Z,96605.81
2019-05-09T18:45:48.267Z,96607.70
2019-05-09T18:48:18.529Z,96599.13
2019-05-09T18:50:46.133Z,96574.36
2019-05-09T18:53:14.134Z,96602.64
2019-05-09T18:55:42.046Z,96609.97
2019-05-09T18:58:10.150Z,96621.14
2019-05-09T19:01:00.372Z,96607.53
2019-05-09T19:03:30.468Z,96631.24
2019-05-09T19:06:00.034Z,96633.12
2019-05-09T19:08:28.158Z,96637.05
2019-05-09T19:10:56.304Z,96609.39
2019-05-09T19:13:24.252Z,96642.02
2019-05-09T19:16:02.280Z,96638.86
2019-05-09T19:18:46.341Z,96638.39
2019-05-09T19:21:18.263Z,96646.52
2019-05-09T19:23:46.222Z,96649.19
2019-05-09T19:26:32.030Z,96641.47
2019-05-09T19:28:59.916Z,96618.08
2019-05-09T19:31:28.144Z,96647.72
2019-05-09T19:33:57.051Z,96647.73
2019-05-09T19:36:25.127Z,96659.25
2019-05-09T19:38:52.881Z,96665.67
2019-05-09T19:41:20.957Z,96664.95
2019-05-09T19:43:48.908Z,96676.19
2019-05-09T19:46:17.195Z,96693.77
2019-05-09T19:48:45.237Z,96698.39
2019-05-09T19:51:14.607Z,96691.50
2019-05-09T19:53:42.514Z,96699.05
2019-05-09T19:56:10.513Z,96698.11
2019-05-09T19:58:38.439Z,96676.36
2019-05-09T20:01:06.476Z,96699.94
2019-05-09T20:03:34.170Z,96697.68
2019-05-09T20:06:02.377Z,96704.22
2019-05-09T20:08:34.012Z,96711.56
2019-05-09T20:11:29.175Z,96716.31
2019-05-09T20:14:17.075Z,96706.83
2019-05-09T20:16:48.098Z,96709.84
2019-05-09T20:19:16.246Z,96697.69
2019-05-09T20:21:44.296Z,96701.30
2019-05-09T20:24:12.286Z,96697.41
2019-05-09T20:26:40.338Z,96706.55
2019-05-09T20:29:08.380Z,96691.53
2019-05-09T20:31:36.372Z,96686.56
2019-05-09T20:34:04.465Z,96710.02
2019-05-09T20:36:32.419Z,96711.63
2019-05-09T20:39:00.324Z,96707.42
2019-05-09T20:41:28.347Z,96704.97
2019-05-09T20:43:56.268Z,96703.84
2019-05-09T20:46:24.297Z,96698.02
2019-05-09T20:48:52.367Z,96706.11
2019-05-09T20:51:20.470Z,96702.35
2019-05-09T20:53:48.532Z,96708.77
2019-05-09T20:56:16.569Z,96714.98
2019-05-09T20:58:44.486Z,96717.53
2019-05-09T21:01:12.406Z,96718.73
2019-05-09T21:03:40.107Z,96724.37
2019-05-09T21:06:08.321Z,96720.06
2019-05-09T21:08:36.388Z,96716.47
2019-05-09T21:11:04.610Z,96706.35
2019-05-09T21:13:47.530Z,96730.06
2019-05-09T21:16:02.878Z,96701.66
2019-05-09T21:18:31.062Z,96699.49
2019-05-09T21:20:59.154Z,96731.19
2019-05-09T21:23:27.146Z,96726.05
2019-05-09T21:25:55.148Z,96732.05
2019-05-09T21:28:23.242Z,96731.58
2019-05-09T21:30:51.296Z,96738.73
2019-05-09T21:33:19.250Z,96739.30
2019-05-09T21:35:47.671Z,96752.64
2019-05-09T21:38:16.669Z,96754.44
2019-05-09T21:40:44.910Z,96751.23
2019-05-09T21:43:12.772Z,96747.84
2019-05-09T21:45:40.735Z,96747.00
2019-05-09T21:48:08.851Z,96751.72
2019-05-09T21:50:36.788Z,96752.48
2019-05-09T21:53:04.876Z,96756.44
2019-05-09T21:55:32.649Z,96763.28
2019-05-09T21:58:00.644Z,96760.93
2019-05-09T22:00:33.732Z,96757.75
2019-05-09T22:03:01.833Z,96758.68
2019-05-09T22:05:29.948Z,96760.17
2019-05-09T22:07:58.887Z,96767.69
2019-05-09T22:10:27.168Z,96759.05
2019-05-09T22:12:55.313Z,96764.30
2019-05-09T22:15:23.207Z,96765.61
2019-05-09T22:17:51.254Z,96771.23
2019-05-09T22:20:19.549Z,96768.61
2019-05-09T22:22:47.561Z,96768.44
2019-05-09T22:25:15.451Z,96771.23
2019-05-09T22:27:43.512Z,96777.26
2019-05-09T22:30:13.413Z,96794.84
2019-05-09T22:32:41.577Z,96793.35
2019-05-09T22:35:09.783Z,96798.59
2019-05-09T22:37:37.442Z,96798.38
2019-05-09T22:40:05.445Z,96797.05
2019-05-09T22:42:33.385Z,96796.78
2019-05-09T22:45:04.103Z,96789.60
2019-05-09T22:47:32.189Z,96790.94
2019-05-09T22:50:00.370Z,96796.05
2019-05-09T22:52:28.337Z,96788.50
2019-05-09T22:54:56.271Z,96786.97
2019-05-09T22:57:23.937Z,96790.43
2019-05-09T22:59:51.928Z,96798.58
2019-05-09T23:02:20.022Z,96799.86
2019-05-09T23:04:47.872Z,96803.62
2019-05-09T23:07:15.753Z,96808.20
2019-05-09T23:09:43.583Z,96808.28
2019-05-09T23:12:11.503Z,96805.18
2019-05-09T23:14:39.410Z,96805.16
2019-05-09T23:17:07.937Z,96775.28
2019-05-09T23:19:35.967Z,96802.03
2019-05-09T23:22:04.592Z,96806.19
2019-05-09T23:24:33.459Z,96795.83
2019-05-09T23:27:01.373Z,96803.36
2019-05-09T23:29:29.420Z,96804.16
2019-05-09T23:32:03.788Z,96805.77
2019-05-09T23:34:31.801Z,96808.23
2019-05-09T23:37:00.773Z,96814.34
2019-05-09T23:39:32.838Z,96804.06
2019-05-09T23:42:00.919Z,96809.25
2019-05-09T23:44:28.807Z,96812.68
2019-05-09T23:46:56.826Z,96822.47
2019-05-09T23:49:24.886Z,96818.25
2019-05-09T23:51:52.884Z,96819.56
2019-05-09T23:54:47.807Z,96818.14
2019-05-09T23:57:27.492Z,96814.14
